sensor_id;sensor_type;location;lat;lon;timestamp;temperature;humidity
69770;SHT30;57282;52.514;13.458;2022-09-09T00:01:23;16.88;87.12
69770;SHT30;57282;52.514;13.458;2022-09-09T00:04:03;16.88;86.98
69770;SHT30;57282;52.514;13.458;2022-09-09T00:06:43;16.88;86.88
69770;SHT30;57282;52.514;13.458;2022-09-09T00:09:16;16.87;87.07
69770;SHT30;57282;52.514;13.458;2022-09-09T00:11:48;16.83;86.89
69770;SHT30;57282;52.514;13.458;2022-09-09T00:14:24;16.79;87.16
69770;SHT30;57282;52.514;13.458;2022-09-09T00:17:02;16.74;87.27
69770;SHT30;57282;52.514;13.458;2022-09-09T00:19:37;16.76;87.22
69770;SHT30;57282;52.514;13.458;2022-09-09T00:22:15;16.74;87.25
69770;SHT30;57282;52.514;13.458;2022-09-09T00:24:45;16.73;87.08
69770;SHT30;57282;52.514;13.458;2022-09-09T00:27:21;16.69;87.38
69770;SHT30;57282;52.514;13.458;2022-09-09T00:29:57;16.73;87.17
69770;SHT30;57282;52.514;13.458;2022-09-09T00:32:39;16.70;87.23
69770;SHT30;57282;52.514;13.458;2022-09-09T00:35:16;16.70;87.17
69770;SHT30;57282;52.514;13.458;2022-09-09T00:37:46;16.69;87.26
69770;SHT30;57282;52.514;13.458;2022-09-09T00:40:23;16.72;87.11
69770;SHT30;57282;52.514;13.458;2022-09-09T00:43:12;16.72;86.87
69770;SHT30;57282;52.514;13.458;2022-09-09T00:46:11;16.67;86.73
69770;SHT30;57282;52.514;13.458;2022-09-09T00:48:54;16.66;86.92
69770;SHT30;57282;52.514;13.458;2022-09-09T00:51:36;16.66;87.00
69770;SHT30;57282;52.514;13.458;2022-09-09T00:54:21;16.63;86.92
69770;SHT30;57282;52.514;13.458;2022-09-09T00:57:14;16.63;86.87
69770;SHT30;57282;52.514;13.458;2022-09-09T00:59:52;16.60;87.05
69770;SHT30;57282;52.514;13.458;2022-09-09T01:02:30;16.63;86.98
69770;SHT30;57282;52.514;13.458;2022-09-09T01:05:20;16.62;86.97
69770;SHT30;57282;52.514;13.458;2022-09-09T01:07:58;16.60;86.58
69770;SHT30;57282;52.514;13.458;2022-09-09T01:10:35;16.60;86.81
69770;SHT30;57282;52.514;13.458;2022-09-09T01:13:13;16.55;86.58
69770;SHT30;57282;52.514;13.458;2022-09-09T01:15:48;16.56;86.90
69770;SHT30;57282;52.514;13.458;2022-09-09T01:18:21;16.52;86.53
69770;SHT30;57282;52.514;13.458;2022-09-09T01:20:59;16.52;86.68
69770;SHT30;57282;52.514;13.458;2022-09-09T01:23:41;16.53;86.68
69770;SHT30;57282;52.514;13.458;2022-09-09T01:26:25;16.51;86.71
69770;SHT30;57282;52.514;13.458;2022-09-09T01:28:55;16.52;86.78
69770;SHT30;57282;52.514;13.458;2022-09-09T01:31:27;16.46;86.51
69770;SHT30;57282;52.514;13.458;2022-09-09T01:33:56;16.43;86.48
69770;SHT30;57282;52.514;13.458;2022-09-09T01:36:28;16.42;86.60
69770;SHT30;57282;52.514;13.458;2022-09-09T01:38:59;16.43;86.49
69770;SHT30;57282;52.514;13.458;2022-09-09T01:41:27;16.41;86.19
69770;SHT30;57282;52.514;13.458;2022-09-09T01:43:55;16.39;86.15
69770;SHT30;57282;52.514;13.458;2022-09-09T01:46:23;16.39;86.24
69770;SHT30;57282;52.514;13.458;2022-09-09T01:48:51;16.38;86.12
69770;SHT30;57282;52.514;13.458;2022-09-09T01:51:21;16.38;86.09
69770;SHT30;57282;52.514;13.458;2022-09-09T01:53:48;16.32;86.55
69770;SHT30;57282;52.514;13.458;2022-09-09T01:56:25;16.29;86.51
69770;SHT30;57282;52.514;13.458;2022-09-09T01:59:15;16.29;86.39
69770;SHT30;57282;52.514;13.458;2022-09-09T02:01:59;16.28;85.91
69770;SHT30;57282;52.514;13.458;2022-09-09T02:04:39;16.24;86.41
69770;SHT30;57282;52.514;13.458;2022-09-09T02:07:19;16.28;86.47
69770;SHT30;57282;52.514;13.458;2022-09-09T02:09:59;16.21;86.34
69770;SHT30;57282;52.514;13.458;2022-09-09T02:12:35;16.24;86.40
69770;SHT30;57282;52.514;13.458;2022-09-09T02:15:14;16.26;86.30
69770;SHT30;57282;52.514;13.458;2022-09-09T02:17:46;16.22;86.16
69770;SHT30;57282;52.514;13.458;2022-09-09T02:20:16;16.22;85.99
69770;SHT30;57282;52.514;13.458;2022-09-09T02:22:48;16.19;86.19
69770;SHT30;57282;52.514;13.458;2022-09-09T02:25:23;16.19;86.33
69770;SHT30;57282;52.514;13.458;2022-09-09T02:27:54;16.19;86.07
69770;SHT30;57282;52.514;13.458;2022-09-09T02:30:23;16.19;86.01
69770;SHT30;57282;52.514;13.458;2022-09-09T02:32:52;16.16;86.05
69770;SHT30;57282;52.514;13.458;2022-09-09T02:35:24;16.16;86.11
69770;SHT30;57282;52.514;13.458;2022-09-09T02:37:55;16.18;86.15
69770;SHT30;57282;52.514;13.458;2022-09-09T02:40:25;16.15;85.83
69770;SHT30;57282;52.514;13.458;2022-09-09T02:42:55;16.12;85.85
69770;SHT30;57282;52.514;13.458;2022-09-09T02:45:25;16.09;85.93
69770;SHT30;57282;52.514;13.458;2022-09-09T02:48:05;16.09;85.97
69770;SHT30;57282;52.514;13.458;2022-09-09T02:50:41;16.08;86.03
69770;SHT30;57282;52.514;13.458;2022-09-09T02:53:17;16.08;85.81
69770;SHT30;57282;52.514;13.458;2022-09-09T02:55:52;16.05;85.87
69770;SHT30;57282;52.514;13.458;2022-09-09T02:58:25;16.07;85.71
69770;SHT30;57282;52.514;13.458;2022-09-09T03:00:54;16.02;85.49
69770;SHT30;57282;52.514;13.458;2022-09-09T03:03:23;16.01;85.62
69770;SHT30;57282;52.514;13.458;2022-09-09T03:05:51;16.02;85.65
69770;SHT30;57282;52.514;13.458;2022-09-09T03:08:18;16.01;85.78
69770;SHT30;57282;52.514;13.458;2022-09-09T03:10:45;15.98;86.07
69770;SHT30;57282;52.514;13.458;2022-09-09T03:13:12;16.00;85.94
69770;SHT30;57282;52.514;13.458;2022-09-09T03:15:42;15.95;85.91
69770;SHT30;57282;52.514;13.458;2022-09-09T03:18:08;15.95;85.99
69770;SHT30;57282;52.514;13.458;2022-09-09T03:20:35;15.94;86.05
69770;SHT30;57282;52.514;13.458;2022-09-09T03:23:02;15.94;85.95
69770;SHT30;57282;52.514;13.458;2022-09-09T03:25:29;15.93;85.92
69770;SHT30;57282;52.514;13.458;2022-09-09T03:27:57;15.90;85.78
69770;SHT30;57282;52.514;13.458;2022-09-09T03:30:25;15.91;85.66
69770;SHT30;57282;52.514;13.458;2022-09-09T03:32:54;15.93;85.61
69770;SHT30;57282;52.514;13.458;2022-09-09T03:35:22;15.88;85.70
69770;SHT30;57282;52.514;13.458;2022-09-09T03:37:49;15.87;85.60
69770;SHT30;57282;52.514;13.458;2022-09-09T03:40:15;15.87;85.65
69770;SHT30;57282;52.514;13.458;2022-09-09T03:42:43;15.87;85.89
69770;SHT30;57282;52.514;13.458;2022-09-09T03:45:10;15.87;85.70
69770;SHT30;57282;52.514;13.458;2022-09-09T03:47:37;15.90;85.41
69770;SHT30;57282;52.514;13.458;2022-09-09T03:50:07;15.87;85.54
69770;SHT30;57282;52.514;13.458;2022-09-09T03:52:36;15.86;85.57
69770;SHT30;57282;52.514;13.458;2022-09-09T03:55:05;15.87;85.51
69770;SHT30;57282;52.514;13.458;2022-09-09T03:57:35;15.84;85.27
69770;SHT30;57282;52.514;13.458;2022-09-09T04:00:03;15.78;85.36
69770;SHT30;57282;52.514;13.458;2022-09-09T04:02:31;15.84;85.00
69770;SHT30;57282;52.514;13.458;2022-09-09T04:04:58;15.81;85.34
69770;SHT30;57282;52.514;13.458;2022-09-09T04:07:27;15.80;85.33
69770;SHT30;57282;52.514;13.458;2022-09-09T04:09:54;15.74;85.38
69770;SHT30;57282;52.514;13.458;2022-09-09T04:12:20;15.71;85.48
69770;SHT30;57282;52.514;13.458;2022-09-09T04:14:47;15.73;85.81
69770;SHT30;57282;52.514;13.458;2022-09-09T04:17:14;15.73;85.50
69770;SHT30;57282;52.514;13.458;2022-09-09T04:19:41;15.67;85.39
69770;SHT30;57282;52.514;13.458;2022-09-09T04:22:08;15.66;85.68
69770;SHT30;57282;52.514;13.458;2022-09-09T04:24:36;15.66;85.76
69770;SHT30;57282;52.514;13.458;2022-09-09T04:27:03;15.70;85.97
69770;SHT30;57282;52.514;13.458;2022-09-09T04:29:29;15.63;85.53
69770;SHT30;57282;52.514;13.458;2022-09-09T04:31:56;15.64;85.55
69770;SHT30;57282;52.514;13.458;2022-09-09T04:34:23;15.61;85.72
69770;SHT30;57282;52.514;13.458;2022-09-09T04:36:50;15.57;85.71
69770;SHT30;57282;52.514;13.458;2022-09-09T04:39:17;15.63;85.53
69770;SHT30;57282;52.514;13.458;2022-09-09T04:41:46;15.58;85.87
69770;SHT30;57282;52.514;13.458;2022-09-09T04:44:13;15.61;85.74
69770;SHT30;57282;52.514;13.458;2022-09-09T04:46:41;15.61;85.34
69770;SHT30;57282;52.514;13.458;2022-09-09T04:49:08;15.63;84.97
69770;SHT30;57282;52.514;13.458;2022-09-09T04:51:35;15.61;85.07
69770;SHT30;57282;52.514;13.458;2022-09-09T04:54:01;15.63;85.00
69770;SHT30;57282;52.514;13.458;2022-09-09T04:56:28;15.58;84.65
69770;SHT30;57282;52.514;13.458;2022-09-09T04:58:58;15.56;85.03
69770;SHT30;57282;52.514;13.458;2022-09-09T05:01:27;15.57;85.29
69770;SHT30;57282;52.514;13.458;2022-09-09T05:03:54;15.58;85.49
69770;SHT30;57282;52.514;13.458;2022-09-09T05:06:21;15.61;85.60
69770;SHT30;57282;52.514;13.458;2022-09-09T05:08:49;15.61;85.29
69770;SHT30;57282;52.514;13.458;2022-09-09T05:11:18;15.58;85.51
69770;SHT30;57282;52.514;13.458;2022-09-09T05:13:47;15.64;85.63
69770;SHT30;57282;52.514;13.458;2022-09-09T05:16:17;15.67;85.18
69770;SHT30;57282;52.514;13.458;2022-09-09T05:18:46;15.66;85.03
69770;SHT30;57282;52.514;13.458;2022-09-09T05:21:15;15.70;85.38
69770;SHT30;57282;52.514;13.458;2022-09-09T05:23:44;15.70;85.10
69770;SHT30;57282;52.514;13.458;2022-09-09T05:26:12;15.73;85.18
69770;SHT30;57282;52.514;13.458;2022-09-09T05:28:42;15.71;85.24
69770;SHT30;57282;52.514;13.458;2022-09-09T05:31:11;15.73;85.06
69770;SHT30;57282;52.514;13.458;2022-09-09T05:33:41;15.73;84.92
69770;SHT30;57282;52.514;13.458;2022-09-09T05:36:12;15.77;84.78
69770;SHT30;57282;52.514;13.458;2022-09-09T05:38:39;15.76;84.74
69770;SHT30;57282;52.514;13.458;2022-09-09T05:41:07;15.78;84.89
69770;SHT30;57282;52.514;13.458;2022-09-09T05:43:36;15.80;84.95
69770;SHT30;57282;52.514;13.458;2022-09-09T05:46:06;15.78;85.13
69770;SHT30;57282;52.514;13.458;2022-09-09T05:48:35;15.83;85.06
69770;SHT30;57282;52.514;13.458;2022-09-09T05:51:07;15.88;84.86
69770;SHT30;57282;52.514;13.458;2022-09-09T05:53:35;15.88;84.67
69770;SHT30;57282;52.514;13.458;2022-09-09T05:56:04;15.88;84.91
69770;SHT30;57282;52.514;13.458;2022-09-09T05:58:32;15.88;85.28
69770;SHT30;57282;52.514;13.458;2022-09-09T06:01:02;15.90;85.24
69770;SHT30;57282;52.514;13.458;2022-09-09T06:03:30;15.95;84.75
69770;SHT30;57282;52.514;13.458;2022-09-09T06:05:57;15.97;85.29
69770;SHT30;57282;52.514;13.458;2022-09-09T06:08:27;16.00;84.52
69770;SHT30;57282;52.514;13.458;2022-09-09T06:10:53;15.98;84.27
69770;SHT30;57282;52.514;13.458;2022-09-09T06:13:28;16.04;84.77
69770;SHT30;57282;52.514;13.458;2022-09-09T06:15:55;16.08;84.73
69770;SHT30;57282;52.514;13.458;2022-09-09T06:18:23;16.11;84.36
69770;SHT30;57282;52.514;13.458;2022-09-09T06:20:55;16.16;84.38
69770;SHT30;57282;52.514;13.458;2022-09-09T06:23:23;16.18;84.21
69770;SHT30;57282;52.514;13.458;2022-09-09T06:25:51;16.22;83.84
69770;SHT30;57282;52.514;13.458;2022-09-09T06:28:26;16.26;83.64
69770;SHT30;57282;52.514;13.458;2022-09-09T06:30:57;16.28;83.90
69770;SHT30;57282;52.514;13.458;2022-09-09T06:33:24;16.28;84.39
69770;SHT30;57282;52.514;13.458;2022-09-09T06:35:54;16.32;84.27
69770;SHT30;57282;52.514;13.458;2022-09-09T06:38:23;16.33;84.04
69770;SHT30;57282;52.514;13.458;2022-09-09T06:40:52;16.35;84.02
69770;SHT30;57282;52.514;13.458;2022-09-09T06:43:21;16.35;84.08
69770;SHT30;57282;52.514;13.458;2022-09-09T06:45:58;16.39;83.53
69770;SHT30;57282;52.514;13.458;2022-09-09T06:48:27;16.43;83.47
69770;SHT30;57282;52.514;13.458;2022-09-09T06:51:02;16.48;82.77
69770;SHT30;57282;52.514;13.458;2022-09-09T06:53:30;16.49;83.32
69770;SHT30;57282;52.514;13.458;2022-09-09T06:56:00;16.56;83.29
69770;SHT30;57282;52.514;13.458;2022-09-09T06:58:28;16.57;83.52
69770;SHT30;57282;52.514;13.458;2022-09-09T07:01:04;16.64;82.96
69770;SHT30;57282;52.514;13.458;2022-09-09T07:03:32;16.69;82.02
69770;SHT30;57282;52.514;13.458;2022-09-09T07:06:01;16.73;81.79
69770;SHT30;57282;52.514;13.458;2022-09-09T07:08:29;16.76;81.68
69770;SHT30;57282;52.514;13.458;2022-09-09T07:11:03;16.80;81.79
69770;SHT30;57282;52.514;13.458;2022-09-09T07:13:31;16.84;82.44
69770;SHT30;57282;52.514;13.458;2022-09-09T07:16:03;16.90;82.54
69770;SHT30;57282;52.514;13.458;2022-09-09T07:18:32;16.94;81.95
69770;SHT30;57282;52.514;13.458;2022-09-09T07:21:00;16.95;81.01
69770;SHT30;57282;52.514;13.458;2022-09-09T07:23:28;17.01;80.42
69770;SHT30;57282;52.514;13.458;2022-09-09T07:25:55;17.03;79.82
69770;SHT30;57282;52.514;13.458;2022-09-09T07:28:24;17.10;80.43
69770;SHT30;57282;52.514;13.458;2022-09-09T07:30:53;17.14;79.41
69770;SHT30;57282;52.514;13.458;2022-09-09T07:33:21;17.20;79.96
69770;SHT30;57282;52.514;13.458;2022-09-09T07:35:48;17.24;80.86
69770;SHT30;57282;52.514;13.458;2022-09-09T07:38:14;17.27;80.72
69770;SHT30;57282;52.514;13.458;2022-09-09T07:40:41;17.32;80.27
69770;SHT30;57282;52.514;13.458;2022-09-09T07:43:08;17.35;79.61
69770;SHT30;57282;52.514;13.458;2022-09-09T07:45:37;17.41;79.23
69770;SHT30;57282;52.514;13.458;2022-09-09T07:48:05;17.48;78.36
69770;SHT30;57282;52.514;13.458;2022-09-09T07:50:32;17.61;78.28
69770;SHT30;57282;52.514;13.458;2022-09-09T07:52:59;18.03;79.27
69770;SHT30;57282;52.514;13.458;2022-09-09T07:55:27;18.26;77.68
69770;SHT30;57282;52.514;13.458;2022-09-09T07:57:55;18.78;75.97
69770;SHT30;57282;52.514;13.458;2022-09-09T08:00:22;19.17;74.37
69770;SHT30;57282;52.514;13.458;2022-09-09T08:02:50;19.47;72.95
69770;SHT30;57282;52.514;13.458;2022-09-09T08:05:19;19.53;71.90
69770;SHT30;57282;52.514;13.458;2022-09-09T08:07:45;19.82;70.89
69770;SHT30;57282;52.514;13.458;2022-09-09T08:10:12;19.94;70.27
69770;SHT30;57282;52.514;13.458;2022-09-09T08:12:40;20.09;69.35
69770;SHT30;57282;52.514;13.458;2022-09-09T08:15:07;20.19;67.87
69770;SHT30;57282;52.514;13.458;2022-09-09T08:17:34;20.42;68.09
69770;SHT30;57282;52.514;13.458;2022-09-09T08:20:07;20.39;67.79
69770;SHT30;57282;52.514;13.458;2022-09-09T08:22:33;20.42;67.70
69770;SHT30;57282;52.514;13.458;2022-09-09T08:25:03;20.63;66.83
69770;SHT30;57282;52.514;13.458;2022-09-09T08:27:31;20.91;65.67
69770;SHT30;57282;52.514;13.458;2022-09-09T08:29:58;20.97;65.50
69770;SHT30;57282;52.514;13.458;2022-09-09T08:32:25;20.98;65.33
69770;SHT30;57282;52.514;13.458;2022-09-09T08:34:52;21.08;64.89
69770;SHT30;57282;52.514;13.458;2022-09-09T08:37:20;21.12;64.86
69770;SHT30;57282;52.514;13.458;2022-09-09T08:39:46;21.21;64.51
69770;SHT30;57282;52.514;13.458;2022-09-09T08:42:31;21.45;64.10
69770;SHT30;57282;52.514;13.458;2022-09-09T08:45:19;21.55;63.79
69770;SHT30;57282;52.514;13.458;2022-09-09T08:48:08;21.66;63.12
69770;SHT30;57282;52.514;13.458;2022-09-09T08:50:45;21.69;62.60
69770;SHT30;57282;52.514;13.458;2022-09-09T08:53:21;21.76;62.58
69770;SHT30;57282;52.514;13.458;2022-09-09T08:55:52;21.62;62.89
69770;SHT30;57282;52.514;13.458;2022-09-09T08:58:23;21.34;64.03
69770;SHT30;57282;52.514;13.458;2022-09-09T09:01:22;21.19;64.52
69770;SHT30;57282;52.514;13.458;2022-09-09T09:04:03;21.35;63.90
69770;SHT30;57282;52.514;13.458;2022-09-09T09:06:46;21.46;63.76
69770;SHT30;57282;52.514;13.458;2022-09-09T09:09:29;21.37;64.16
69770;SHT30;57282;52.514;13.458;2022-09-09T09:12:14;21.42;63.94
69770;SHT30;57282;52.514;13.458;2022-09-09T09:14:43;21.46;63.99
69770;SHT30;57282;52.514;13.458;2022-09-09T09:17:14;21.69;63.15
69770;SHT30;57282;52.514;13.458;2022-09-09T09:19:45;21.89;62.36
69770;SHT30;57282;52.514;13.458;2022-09-09T09:22:17;21.82;62.18
69770;SHT30;57282;52.514;13.458;2022-09-09T09:24:52;21.90;62.01
69770;SHT30;57282;52.514;13.458;2022-09-09T09:27:27;21.90;61.94
69770;SHT30;57282;52.514;13.458;2022-09-09T09:29:59;21.83;62.35
69770;SHT30;57282;52.514;13.458;2022-09-09T09:32:32;21.85;62.40
69770;SHT30;57282;52.514;13.458;2022-09-09T09:35:02;21.92;62.47
69770;SHT30;57282;52.514;13.458;2022-09-09T09:37:40;22.03;62.03
69770;SHT30;57282;52.514;13.458;2022-09-09T09:40:11;22.00;62.27
69770;SHT30;57282;52.514;13.458;2022-09-09T09:42:48;21.69;63.22
69770;SHT30;57282;52.514;13.458;2022-09-09T09:45:27;21.58;63.50
69770;SHT30;57282;52.514;13.458;2022-09-09T09:48:00;21.50;63.80
69770;SHT30;57282;52.514;13.458;2022-09-09T09:50:29;21.62;63.66
69770;SHT30;57282;52.514;13.458;2022-09-09T09:52:58;21.89;62.93
69770;SHT30;57282;52.514;13.458;2022-09-09T09:55:28;21.89;62.74
69770;SHT30;57282;52.514;13.458;2022-09-09T09:58:04;21.69;63.30
69770;SHT30;57282;52.514;13.458;2022-09-09T10:00:32;21.62;63.77
69770;SHT30;57282;52.514;13.458;2022-09-09T10:03:01;21.76;63.43
69770;SHT30;57282;52.514;13.458;2022-09-09T10:05:29;21.70;63.68
69770;SHT30;57282;52.514;13.458;2022-09-09T10:08:02;21.85;63.58
69770;SHT30;57282;52.514;13.458;2022-09-09T10:10:42;21.89;63.52
69770;SHT30;57282;52.514;13.458;2022-09-09T10:13:20;21.97;63.37
69770;SHT30;57282;52.514;13.458;2022-09-09T10:16:05;21.93;63.56
69770;SHT30;57282;52.514;13.458;2022-09-09T10:18:56;21.93;63.54
69770;SHT30;57282;52.514;13.458;2022-09-09T10:21:53;22.08;62.94
69770;SHT30;57282;52.514;13.458;2022-09-09T10:27:49;22.20;62.39
69770;SHT30;57282;52.514;13.458;2022-09-09T10:30:33;22.07;62.23
69770;SHT30;57282;52.514;13.458;2022-09-09T10:33:10;22.10;62.56
69770;SHT30;57282;52.514;13.458;2022-09-09T10:35:49;22.07;62.69
69770;SHT30;57282;52.514;13.458;2022-09-09T10:38:28;22.22;62.12
69770;SHT30;57282;52.514;13.458;2022-09-09T10:41:15;22.20;61.90
69770;SHT30;57282;52.514;13.458;2022-09-09T10:44:15;22.14;61.85
69770;SHT30;57282;52.514;13.458;2022-09-09T10:47:14;22.11;61.91
69770;SHT30;57282;52.514;13.458;2022-09-09T10:53:14;22.24;61.44
69770;SHT30;57282;52.514;13.458;2022-09-09T10:55:52;22.22;61.45
69770;SHT30;57282;52.514;13.458;2022-09-09T10:58:25;22.35;61.24
69770;SHT30;57282;52.514;13.458;2022-09-09T11:01:05;22.45;60.78
69770;SHT30;57282;52.514;13.458;2022-09-09T11:03:42;22.51;60.74
69770;SHT30;57282;52.514;13.458;2022-09-09T11:06:17;22.66;60.33
69770;SHT30;57282;52.514;13.458;2022-09-09T11:08:48;22.59;60.66
69770;SHT30;57282;52.514;13.458;2022-09-09T11:11:19;22.58;60.82
69770;SHT30;57282;52.514;13.458;2022-09-09T11:13:57;22.54;60.77
69770;SHT30;57282;52.514;13.458;2022-09-09T11:16:31;22.58;60.60
69770;SHT30;57282;52.514;13.458;2022-09-09T11:19:14;22.55;60.65
69770;SHT30;57282;52.514;13.458;2022-09-09T11:21:48;22.45;61.26
69770;SHT30;57282;52.514;13.458;2022-09-09T11:24:22;22.45;61.33
69770;SHT30;57282;52.514;13.458;2022-09-09T11:26:58;22.47;61.41
69770;SHT30;57282;52.514;13.458;2022-09-09T11:38:52;22.28;61.52
69770;SHT30;57282;52.514;13.458;2022-09-09T11:41:34;22.22;61.63
69770;SHT30;57282;52.514;13.458;2022-09-09T11:44:10;22.20;61.50
69770;SHT30;57282;52.514;13.458;2022-09-09T11:46:40;22.27;61.68
69770;SHT30;57282;52.514;13.458;2022-09-09T11:49:26;22.31;61.02
69770;SHT30;57282;52.514;13.458;2022-09-09T11:51:55;22.24;61.61
69770;SHT30;57282;52.514;13.458;2022-09-09T11:54:29;22.24;61.60
69770;SHT30;57282;52.514;13.458;2022-09-09T11:56:57;22.27;61.58
69770;SHT30;57282;52.514;13.458;2022-09-09T11:59:26;22.48;60.77
69770;SHT30;57282;52.514;13.458;2022-09-09T12:01:57;22.44;60.73
69770;SHT30;57282;52.514;13.458;2022-09-09T12:04:31;22.44;60.64
69770;SHT30;57282;52.514;13.458;2022-09-09T12:07:03;22.49;60.52
69770;SHT30;57282;52.514;13.458;2022-09-09T12:09:51;22.59;60.26
69770;SHT30;57282;52.514;13.458;2022-09-09T12:12:27;22.69;60.30
69770;SHT30;57282;52.514;13.458;2022-09-09T12:15:01;22.72;60.58
69770;SHT30;57282;52.514;13.458;2022-09-09T12:17:49;22.76;59.70
69770;SHT30;57282;52.514;13.458;2022-09-09T12:20:21;22.79;59.98
69770;SHT30;57282;52.514;13.458;2022-09-09T12:23:14;22.85;59.93
69770;SHT30;57282;52.514;13.458;2022-09-09T12:25:56;22.93;59.65
69770;SHT30;57282;52.514;13.458;2022-09-09T12:28:43;22.89;58.41
69770;SHT30;57282;52.514;13.458;2022-09-09T12:31:21;22.69;58.93
69770;SHT30;57282;52.514;13.458;2022-09-09T12:33:53;22.71;58.63
69770;SHT30;57282;52.514;13.458;2022-09-09T12:36:24;22.62;59.04
69770;SHT30;57282;52.514;13.458;2022-09-09T12:38:57;22.61;58.60
69770;SHT30;57282;52.514;13.458;2022-09-09T12:41:36;22.71;58.93
69770;SHT30;57282;52.514;13.458;2022-09-09T12:44:04;22.77;58.92
69770;SHT30;57282;52.514;13.458;2022-09-09T12:46:35;22.81;58.87
69770;SHT30;57282;52.514;13.458;2022-09-09T12:49:26;22.81;58.83
69770;SHT30;57282;52.514;13.458;2022-09-09T12:51:57;22.88;58.61
69770;SHT30;57282;52.514;13.458;2022-09-09T12:54:25;22.88;58.62
69770;SHT30;57282;52.514;13.458;2022-09-09T12:56:53;22.82;58.01
69770;SHT30;57282;52.514;13.458;2022-09-09T12:59:23;22.92;58.39
69770;SHT30;57282;52.514;13.458;2022-09-09T13:01:58;22.92;58.61
69770;SHT30;57282;52.514;13.458;2022-09-09T13:04:25;22.88;58.67
69770;SHT30;57282;52.514;13.458;2022-09-09T13:06:52;22.85;58.70
69770;SHT30;57282;52.514;13.458;2022-09-09T13:09:22;22.86;58.69
69770;SHT30;57282;52.514;13.458;2022-09-09T13:11:51;22.96;58.22
69770;SHT30;57282;52.514;13.458;2022-09-09T13:14:29;23.02;57.57
69770;SHT30;57282;52.514;13.458;2022-09-09T13:17:01;23.09;56.93
69770;SHT30;57282;52.514;13.458;2022-09-09T13:19:33;23.09;56.60
69770;SHT30;57282;52.514;13.458;2022-09-09T13:22:11;23.12;56.38
69770;SHT30;57282;52.514;13.458;2022-09-09T13:24:40;23.10;56.09
69770;SHT30;57282;52.514;13.458;2022-09-09T13:27:24;23.12;55.80
69770;SHT30;57282;52.514;13.458;2022-09-09T13:29:55;23.06;55.80
69770;SHT30;57282;52.514;13.458;2022-09-09T13:32:23;23.06;55.79
69770;SHT30;57282;52.514;13.458;2022-09-09T13:34:53;23.06;55.60
69770;SHT30;57282;52.514;13.458;2022-09-09T13:37:24;23.06;55.77
69770;SHT30;57282;52.514;13.458;2022-09-09T13:40:02;23.09;55.52
69770;SHT30;57282;52.514;13.458;2022-09-09T13:42:33;23.06;55.58
69770;SHT30;57282;52.514;13.458;2022-09-09T13:45:16;23.10;55.47
69770;SHT30;57282;52.514;13.458;2022-09-09T13:47:46;23.09;55.25
69770;SHT30;57282;52.514;13.458;2022-09-09T13:50:19;23.24;54.75
69770;SHT30;57282;52.514;13.458;2022-09-09T13:52:46;23.20;54.70
69770;SHT30;57282;52.514;13.458;2022-09-09T13:55:15;23.16;54.79
69770;SHT30;57282;52.514;13.458;2022-09-09T13:57:50;23.12;54.79
69770;SHT30;57282;52.514;13.458;2022-09-09T14:00:18;23.10;54.95
69770;SHT30;57282;52.514;13.458;2022-09-09T14:02:45;23.07;55.06
69770;SHT30;57282;52.514;13.458;2022-09-09T14:05:12;23.10;55.33
69770;SHT30;57282;52.514;13.458;2022-09-09T14:07:40;23.04;55.43
69770;SHT30;57282;52.514;13.458;2022-09-09T14:10:07;23.06;55.33
69770;SHT30;57282;52.514;13.458;2022-09-09T14:12:36;23.09;55.11
69770;SHT30;57282;52.514;13.458;2022-09-09T14:15:05;23.06;55.22
69770;SHT30;57282;52.514;13.458;2022-09-09T14:17:34;23.13;55.12
69770;SHT30;57282;52.514;13.458;2022-09-09T14:20:02;23.13;55.00
69770;SHT30;57282;52.514;13.458;2022-09-09T14:22:30;23.16;54.94
69770;SHT30;57282;52.514;13.458;2022-09-09T14:24:56;23.13;54.98
69770;SHT30;57282;52.514;13.458;2022-09-09T14:27:24;23.16;54.85
69770;SHT30;57282;52.514;13.458;2022-09-09T14:29:53;23.19;54.96
69770;SHT30;57282;52.514;13.458;2022-09-09T14:32:20;23.24;55.10
69770;SHT30;57282;52.514;13.458;2022-09-09T14:34:47;23.28;55.33
69770;SHT30;57282;52.514;13.458;2022-09-09T14:37:14;23.23;55.73
69770;SHT30;57282;52.514;13.458;2022-09-09T14:39:41;23.19;55.91
69770;SHT30;57282;52.514;13.458;2022-09-09T14:42:09;23.17;56.01
69770;SHT30;57282;52.514;13.458;2022-09-09T14:44:36;23.19;56.18
69770;SHT30;57282;52.514;13.458;2022-09-09T14:47:05;23.23;56.24
69770;SHT30;57282;52.514;13.458;2022-09-09T14:49:33;23.23;56.38
69770;SHT30;57282;52.514;13.458;2022-09-09T14:52:00;23.19;56.49
69770;SHT30;57282;52.514;13.458;2022-09-09T14:54:26;23.17;56.58
69770;SHT30;57282;52.514;13.458;2022-09-09T14:56:54;23.20;56.53
69770;SHT30;57282;52.514;13.458;2022-09-09T14:59:22;23.20;56.43
69770;SHT30;57282;52.514;13.458;2022-09-09T15:01:49;23.17;56.55
69770;SHT30;57282;52.514;13.458;2022-09-09T15:04:17;23.21;56.63
69770;SHT30;57282;52.514;13.458;2022-09-09T15:06:44;23.20;56.74
69770;SHT30;57282;52.514;13.458;2022-09-09T15:09:13;23.16;57.00
69770;SHT30;57282;52.514;13.458;2022-09-09T15:11:40;23.03;57.53
69770;SHT30;57282;52.514;13.458;2022-09-09T15:14:08;22.92;58.04
69770;SHT30;57282;52.514;13.458;2022-09-09T15:16:38;23.03;57.64
69770;SHT30;57282;52.514;13.458;2022-09-09T15:19:05;23.06;57.41
69770;SHT30;57282;52.514;13.458;2022-09-09T15:21:35;23.13;57.31
69770;SHT30;57282;52.514;13.458;2022-09-09T15:24:03;23.17;57.08
69770;SHT30;57282;52.514;13.458;2022-09-09T15:26:32;23.24;56.63
69770;SHT30;57282;52.514;13.458;2022-09-09T15:28:59;23.23;56.55
69770;SHT30;57282;52.514;13.458;2022-09-09T15:31:28;23.31;56.12
69770;SHT30;57282;52.514;13.458;2022-09-09T15:33:57;23.23;55.94
69770;SHT30;57282;52.514;13.458;2022-09-09T15:36:27;23.27;55.66
69770;SHT30;57282;52.514;13.458;2022-09-09T15:38:59;23.28;55.17
69770;SHT30;57282;52.514;13.458;2022-09-09T15:41:29;23.24;54.78
69770;SHT30;57282;52.514;13.458;2022-09-09T15:44:01;23.26;54.60
69770;SHT30;57282;52.514;13.458;2022-09-09T15:46:31;23.27;54.27
69770;SHT30;57282;52.514;13.458;2022-09-09T15:49:04;23.24;53.80
69770;SHT30;57282;52.514;13.458;2022-09-09T15:51:34;23.26;53.70
69770;SHT30;57282;52.514;13.458;2022-09-09T15:54:04;23.27;53.73
69770;SHT30;57282;52.514;13.458;2022-09-09T15:56:31;23.24;53.86
69770;SHT30;57282;52.514;13.458;2022-09-09T15:59:00;23.23;53.95
69770;SHT30;57282;52.514;13.458;2022-09-09T16:01:29;23.21;54.13